createdAt,value
2023-10-05T00:02:12.218Z,3.38
2023-10-05T00:04:43.821Z,4.55
2023-10-05T00:07:25.299Z,4.43
2023-10-05T00:09:52.590Z,4.75
2023-10-05T00:12:26.706Z,5.32
2023-10-05T00:15:15.994Z,4.72
2023-10-05T00:17:43.438Z,4.72
2023-10-05T00:20:31.515Z,4.63
2023-10-05T00:22:59.823Z,4.63
2023-10-05T00:25:29.179Z,4.05
2023-10-05T00:27:56.959Z,4.82
2023-10-05T00:30:25.090Z,4.88
2023-10-05T00:32:57.515Z,4.95
2023-10-05T00:35:34.685Z,3.97
2023-10-05T00:38:22.069Z,4.50
2023-10-05T00:40:57.382Z,4.65
2023-10-05T00:43:26.019Z,4.95
2023-10-05T00:45:58.511Z,5.70
2023-10-05T00:48:36.451Z,4.75
2023-10-05T00:51:15.572Z,5.15
2023-10-05T00:53:43.246Z,4.10
2023-10-05T00:56:13.584Z,4.80
2023-10-05T00:58:49.726Z,4.13
2023-10-05T01:01:17.472Z,4.40
2023-10-05T01:04:02.205Z,5.03
2023-10-05T01:06:48.096Z,4.10
2023-10-05T01:09:32.522Z,4.80
2023-10-05T01:12:06.121Z,4.28
2023-10-05T01:14:52.204Z,5.13
2023-10-05T01:17:29.045Z,5.40
2023-10-05T01:20:23.286Z,5.50
2023-10-05T01:22:51.198Z,4.95
2023-10-05T01:25:18.239Z,4.78
2023-10-05T01:27:51.955Z,3.67
2023-10-05T01:30:20.309Z,4.38
2023-10-05T01:32:48.801Z,4.80
2023-10-05T01:35:18.873Z,4.22
2023-10-05T01:37:48.411Z,4.18
2023-10-05T01:40:22.055Z,4.65
2023-10-05T01:42:53.268Z,4.57
2023-10-05T01:45:24.869Z,4.72
2023-10-05T01:47:53.321Z,5.18
2023-10-05T01:50:20.941Z,5.35
2023-10-05T01:52:57.029Z,5.50
2023-10-05T01:55:25.666Z,4.68
2023-10-05T01:57:55.134Z,4.97
2023-10-05T02:00:24.706Z,4.45
2023-10-05T02:02:53.863Z,5.00
2023-10-05T02:05:21.419Z,5.40
2023-10-05T02:07:51.136Z,4.97
2023-10-05T02:12:55.869Z,4.65
2023-10-05T02:15:30.162Z,4.38
2023-10-05T02:18:04.743Z,5.70
2023-10-05T02:20:34.615Z,4.90
2023-10-05T02:23:04.105Z,5.00
2023-10-05T02:25:37.343Z,5.25
2023-10-05T02:28:09.528Z,4.63
2023-10-05T02:30:37.974Z,4.53
2023-10-05T02:33:10.352Z,5.13
2023-10-05T02:35:39.400Z,5.82
2023-10-05T02:38:07.223Z,4.63
2023-10-05T02:40:40.424Z,4.53
2023-10-05T02:43:09.382Z,4.50
2023-10-05T02:45:39.190Z,5.10
2023-10-05T02:50:38.798Z,5.00
2023-10-05T02:53:09.634Z,5.10
2023-10-05T02:55:37.275Z,4.43
2023-10-05T02:58:08.357Z,5.60
2023-10-05T03:00:35.773Z,3.67
2023-10-05T03:03:04.992Z,5.40
2023-10-05T03:05:38.432Z,4.97
2023-10-05T03:08:05.687Z,4.80
2023-10-05T03:10:32.732Z,4.88
2023-10-05T03:13:00.229Z,4.93
2023-10-05T03:15:28.665Z,4.97
2023-10-05T03:18:00.004Z,4.57
2023-10-05T03:20:30.930Z,4.40
2023-10-05T03:22:58.022Z,5.80
2023-10-05T03:25:27.488Z,4.90
2023-10-05T03:27:57.602Z,5.28
2023-10-05T03:30:31.437Z,3.78
2023-10-05T03:33:01.947Z,5.00
2023-10-05T03:35:33.490Z,5.07
2023-10-05T03:38:05.591Z,4.70
2023-10-05T03:40:38.658Z,5.00
2023-10-05T03:43:06.612Z,4.60
2023-10-05T03:45:40.172Z,4.68
2023-10-05T03:48:07.657Z,4.97
2023-10-05T03:50:34.704Z,3.47
2023-10-05T03:53:02.635Z,4.63
2023-10-05T03:55:29.631Z,4.18
2023-10-05T03:57:58.661Z,3.40
2023-10-05T04:00:36.467Z,4.32
2023-10-05T04:03:08.487Z,5.35
2023-10-05T04:05:38.971Z,5.72
2023-10-05T04:08:12.661Z,5.15
2023-10-05T04:10:53.603Z,5.20
2023-10-05T04:13:25.338Z,4.32
2023-10-05T04:15:52.895Z,6.00
2023-10-05T04:18:22.816Z,5.00
2023-10-05T04:20:54.119Z,4.80
2023-10-05T04:23:27.109Z,5.35
2023-10-05T04:25:57.267Z,5.18
2023-10-05T04:28:34.088Z,6.00
2023-10-05T04:31:01.727Z,5.68
2023-10-05T04:33:30.139Z,5.30
2023-10-05T04:35:57.762Z,6.05
2023-10-05T04:38:26.309Z,6.22
2023-10-05T04:40:53.719Z,5.60
2023-10-05T04:43:22.377Z,5.68
2023-10-05T04:45:51.144Z,6.30
2023-10-05T04:48:20.287Z,5.60
2023-10-05T04:50:50.691Z,6.45
2023-10-05T04:53:18.430Z,5.93
2023-10-05T04:55:46.328Z,5.65
2023-10-05T04:58:22.119Z,5.72
2023-10-05T05:00:49.317Z,5.03
2023-10-05T05:03:25.635Z,4.93
2023-10-05T05:06:12.075Z,5.05
2023-10-05T05:08:42.780Z,5.35
2023-10-05T05:11:19.984Z,5.70
2023-10-05T05:13:49.884Z,5.65
2023-10-05T05:16:17.027Z,5.32
2023-10-05T05:18:45.277Z,5.35
2023-10-05T05:21:12.901Z,5.43
2023-10-05T05:23:44.322Z,4.05
2023-10-05T05:26:12.921Z,5.57
2023-10-05T05:28:40.469Z,5.80
2023-10-05T05:31:19.914Z,4.80
2023-10-05T05:33:47.102Z,4.15
2023-10-05T05:36:14.786Z,6.47
2023-10-05T05:38:42.165Z,6.10
2023-10-05T05:41:13.743Z,6.43
2023-10-05T05:43:41.064Z,5.95
2023-10-05T05:46:15.608Z,3.38
2023-10-05T05:48:50.040Z,4.60
2023-10-05T05:51:18.825Z,5.10
2023-10-05T05:53:49.481Z,5.32
2023-10-05T05:56:20.252Z,5.97
2023-10-05T05:58:53.265Z,6.50
2023-10-05T06:01:22.293Z,6.53
2023-10-05T06:03:52.664Z,7.85
2023-10-05T06:06:22.457Z,8.48
2023-10-05T06:08:50.304Z,8.98
2023-10-05T06:11:17.471Z,5.35
2023-10-05T06:13:46.830Z,7.07
2023-10-05T06:18:42.965Z,6.60
2023-10-05T06:21:09.917Z,6.60
2023-10-05T06:23:36.889Z,6.82
2023-10-05T06:26:04.210Z,6.72
2023-10-05T06:28:34.004Z,7.10
2023-10-05T06:33:29.797Z,6.32
2023-10-05T06:35:56.799Z,6.45
2023-10-05T06:38:24.260Z,6.95
2023-10-05T06:40:51.970Z,7.63
2023-10-05T06:43:19.138Z,7.45
2023-10-05T06:45:46.413Z,7.72
2023-10-05T06:48:15.761Z,7.20
2023-10-05T06:50:44.461Z,6.40
2023-10-05T06:53:14.499Z,6.90
2023-10-05T06:55:41.569Z,6.95
2023-10-05T06:58:08.817Z,6.70
2023-10-05T07:00:36.740Z,6.57
2023-10-05T07:03:07.830Z,6.68
2023-10-05T07:05:35.365Z,5.75
2023-10-05T07:08:02.432Z,7.00
2023-10-05T07:10:29.521Z,6.57
2023-10-05T07:12:56.645Z,6.72
2023-10-05T07:15:23.700Z,6.53
2023-10-05T07:17:51.399Z,6.70
2023-10-05T07:20:22.055Z,6.50
2023-10-05T07:22:49.986Z,7.35
2023-10-05T07:25:18.509Z,6.53
2023-10-05T07:27:48.778Z,6.57
2023-10-05T07:30:16.185Z,6.57
2023-10-05T07:32:43.669Z,5.13
2023-10-05T07:35:14.510Z,5.57
2023-10-05T07:37:42.473Z,6.82
2023-10-05T07:40:10.858Z,6.70
2023-10-05T07:42:41.592Z,6.63
2023-10-05T07:45:09.381Z,6.07
2023-10-05T07:47:47.718Z,6.47
2023-10-05T07:50:15.653Z,5.93
2023-10-05T07:52:50.920Z,6.72
2023-10-05T07:55:17.981Z,6.30
2023-10-05T07:57:45.326Z,6.80
2023-10-05T08:00:13.982Z,5.78
2023-10-05T08:02:43.061Z,6.47
2023-10-05T08:05:13.215Z,6.20
2023-10-05T08:10:14.729Z,7.00
2023-10-05T08:12:41.779Z,6.25
2023-10-05T08:15:09.221Z,4.78
2023-10-05T08:17:37.543Z,6.05
2023-10-05T08:20:06.370Z,6.18
2023-10-05T08:22:36.765Z,5.45
2023-10-05T08:25:11.569Z,5.75
2023-10-05T08:27:40.621Z,5.88
2023-10-05T08:30:09.680Z,6.28
2023-10-05T08:32:38.195Z,6.45
2023-10-05T08:35:14.419Z,6.65
2023-10-05T08:37:49.526Z,6.78
2023-10-05T08:40:36.771Z,6.38
2023-10-05T08:43:11.117Z,6.47
2023-10-05T08:45:53.666Z,7.85
2023-10-05T08:48:43.961Z,6.80
2023-10-05T08:51:12.513Z,6.55
2023-10-05T08:53:49.925Z,6.97
2023-10-05T08:56:18.463Z,6.45
2023-10-05T08:58:48.300Z,5.53
2023-10-05T09:01:32.762Z,6.70
2023-10-05T09:04:03.184Z,7.03
2023-10-05T09:06:31.750Z,5.63
2023-10-05T09:09:04.950Z,5.68
2023-10-05T09:11:32.975Z,6.45
2023-10-05T09:14:19.409Z,6.70
2023-10-05T09:16:49.484Z,5.35
2023-10-05T09:19:34.638Z,5.13
2023-10-05T09:22:02.229Z,6.43
2023-10-05T09:24:29.370Z,5.93
2023-10-05T09:26:58.554Z,7.82
2023-10-05T09:29:31.921Z,4.78
2023-10-05T09:32:00.042Z,7.78
2023-10-05T09:34:39.256Z,6.68
2023-10-05T09:37:11.688Z,6.75
2023-10-05T09:39:50.389Z,6.88
2023-10-05T09:42:28.069Z,7.05
2023-10-05T09:45:00.305Z,6.60
2023-10-05T09:47:34.612Z,6.95
2023-10-05T09:50:11.375Z,5.45
2023-10-05T09:52:39.483Z,5.63
2023-10-05T09:55:08.623Z,6.65
2023-10-05T09:57:43.313Z,6.88
2023-10-05T10:00:31.731Z,6.72
2023-10-05T10:03:03.446Z,7.38
2023-10-05T10:05:37.797Z,6.10
2023-10-05T10:08:22.163Z,6.28
2023-10-05T10:11:10.197Z,7.07
2023-10-05T10:13:41.616Z,7.28
2023-10-05T10:16:22.577Z,7.35
2023-10-05T10:19:20.210Z,7.13
2023-10-05T10:21:58.212Z,7.15
2023-10-05T10:24:29.554Z,7.18
2023-10-05T10:27:12.664Z,6.00
2023-10-05T10:29:43.745Z,6.85
2023-10-05T10:32:19.762Z,6.95
2023-10-05T10:34:56.323Z,7.13
2023-10-05T10:37:44.566Z,7.85
2023-10-05T10:40:19.518Z,8.00
2023-10-05T10:43:06.091Z,7.43
2023-10-05T10:45:46.206Z,7.53
2023-10-05T10:48:20.405Z,6.45
2023-10-05T10:50:48.730Z,7.05
2023-10-05T10:53:19.184Z,6.85
2023-10-05T10:55:59.279Z,6.72
2023-10-05T10:58:27.559Z,6.45
2023-10-05T11:00:57.563Z,6.20
2023-10-05T11:03:28.256Z,6.93
2023-10-05T11:05:56.040Z,6.93
2023-10-05T11:08:25.928Z,6.78
2023-10-05T11:10:56.492Z,5.95
2023-10-05T11:13:28.641Z,5.43
2023-10-05T11:16:03.390Z,7.65
2023-10-05T11:18:42.632Z,6.75
2023-10-05T11:21:15.846Z,7.45
2023-10-05T11:23:50.076Z,7.47
2023-10-05T11:26:20.536Z,6.90
2023-10-05T11:28:50.224Z,7.75
2023-10-05T11:31:39.159Z,6.90
2023-10-05T11:34:44.494Z,6.07
2023-10-05T11:37:02.552Z,7.30
2023-10-05T11:41:58.681Z,6.53
2023-10-05T11:44:26.390Z,7.18
2023-10-05T11:46:56.992Z,7.47
2023-10-05T11:49:32.043Z,6.38
2023-10-05T11:52:00.637Z,6.72
2023-10-05T11:54:32.077Z,6.15
2023-10-05T11:57:02.352Z,5.97
2023-10-05T11:59:37.916Z,6.70
2023-10-05T12:02:10.166Z,5.90
2023-10-05T12:04:40.963Z,5.85
2023-10-05T12:07:09.392Z,6.70
2023-10-05T12:09:37.816Z,6.40
2023-10-05T12:12:06.650Z,5.07
2023-10-05T12:14:33.709Z,6.60
2023-10-05T12:17:01.346Z,7.20
2023-10-05T12:19:34.547Z,4.72
2023-10-05T12:22:03.039Z,5.53
2023-10-05T12:24:31.643Z,6.65
2023-10-05T12:27:01.863Z,7.68
2023-10-05T12:29:29.369Z,6.80
2023-10-05T12:32:08.118Z,7.32
2023-10-05T12:34:36.414Z,7.50
2023-10-05T12:37:09.556Z,6.85
2023-10-05T12:39:37.270Z,7.82
2023-10-05T12:42:05.251Z,7.88
2023-10-05T12:44:33.823Z,8.40
2023-10-05T12:47:01.055Z,7.68
2023-10-05T12:49:28.378Z,8.70
2023-10-05T12:51:57.538Z,8.30
2023-10-05T12:54:30.601Z,8.30
2023-10-05T12:57:17.791Z,8.10
2023-10-05T12:59:49.372Z,8.30
2023-10-05T13:02:17.368Z,7.35
2023-10-05T13:04:45.093Z,9.25
2023-10-05T13:07:18.087Z,9.13
2023-10-05T13:09:45.646Z,8.43
2023-10-05T13:12:17.015Z,7.25
2023-10-05T13:14:44.185Z,7.30
2023-10-05T13:17:13.607Z,8.35
2023-10-05T13:19:41.176Z,7.70
2023-10-05T13:22:11.031Z,7.15
2023-10-05T13:24:38.111Z,7.72
2023-10-05T13:27:08.300Z,7.50
2023-10-05T13:29:44.524Z,7.35
2023-10-05T13:32:13.710Z,7.00
2023-10-05T13:34:41.358Z,8.43
2023-10-05T13:37:09.933Z,7.20
2023-10-05T13:39:37.101Z,7.22
2023-10-05T13:42:11.023Z,6.70
2023-10-05T13:44:38.630Z,7.05
2023-10-05T13:47:06.449Z,6.75
2023-10-05T13:49:36.553Z,7.13
2023-10-05T13:52:07.460Z,7.30
2023-10-05T13:54:36.368Z,7.07
2023-10-05T13:57:04.954Z,6.88
2023-10-05T13:59:32.405Z,7.50
2023-10-05T14:02:01.675Z,7.05
2023-10-05T14:04:31.391Z,6.75
2023-10-05T14:09:30.048Z,6.13
2023-10-05T14:11:57.170Z,6.38
2023-10-05T14:14:24.117Z,6.93
2023-10-05T14:17:01.354Z,6.55
2023-10-05T14:19:31.896Z,6.18
2023-10-05T14:22:00.793Z,6.82
2023-10-05T14:24:28.484Z,6.32
2023-10-05T14:26:55.915Z,6.47
2023-10-05T14:29:25.646Z,7.75
2023-10-05T14:34:24.635Z,6.40
2023-10-05T14:36:54.088Z,6.72
2023-10-05T14:41:57.783Z,5.90
2023-10-05T14:44:30.107Z,6.72
2023-10-05T14:47:00.780Z,6.50
2023-10-05T14:49:27.817Z,5.90
2023-10-05T14:51:54.784Z,5.25
2023-10-05T14:54:23.397Z,5.10
2023-10-05T14:56:51.379Z,5.15
2023-10-05T14:59:19.058Z,3.70
2023-10-05T15:01:47.034Z,4.80
2023-10-05T15:04:17.201Z,4.75
2023-10-05T15:06:44.257Z,4.47
2023-10-05T15:09:13.290Z,5.30
2023-10-05T15:11:40.517Z,4.45
2023-10-05T15:14:07.591Z,4.65
2023-10-05T15:16:34.843Z,5.43
2023-10-05T15:19:02.054Z,6.07
2023-10-05T15:21:31.749Z,4.63
2023-10-05T15:23:59.279Z,4.82
2023-10-05T15:26:26.555Z,4.35
2023-10-05T15:28:53.669Z,4.88
2023-10-05T15:31:20.765Z,5.13
2023-10-05T15:33:47.986Z,3.65
2023-10-05T15:36:14.993Z,5.18
2023-10-05T15:38:42.202Z,4.70
2023-10-05T15:41:09.157Z,4.82
2023-10-05T15:43:38.131Z,4.43
2023-10-05T15:46:07.631Z,5.10
2023-10-05T15:48:36.196Z,5.47
2023-10-05T15:51:03.268Z,5.57
2023-10-05T15:53:31.322Z,4.95
2023-10-05T15:55:58.464Z,5.38
2023-10-05T15:58:27.969Z,5.10
2023-10-05T16:00:56.994Z,5.22
2023-10-05T16:03:24.027Z,5.35
2023-10-05T16:05:51.502Z,4.43
2023-10-05T16:08:20.588Z,5.13
2023-10-05T16:10:47.707Z,5.68
2023-10-05T16:13:16.268Z,5.65
2023-10-05T16:15:43.333Z,5.60
2023-10-05T16:18:12.361Z,5.70
2023-10-05T16:20:42.078Z,4.60
2023-10-05T16:23:12.218Z,5.55
2023-10-05T16:28:09.604Z,5.88
2023-10-05T16:30:37.591Z,6.13
2023-10-05T16:33:06.941Z,4.68
2023-10-05T16:35:34.882Z,5.45
2023-10-05T16:38:02.129Z,4.28
2023-10-05T16:40:30.221Z,5.40
2023-10-05T16:42:59.129Z,5.38
2023-10-05T16:45:26.816Z,5.00
2023-10-05T16:47:55.786Z,5.93
2023-10-05T16:50:25.554Z,4.18
2023-10-05T16:52:53.428Z,4.40
2023-10-05T16:55:21.657Z,4.25
2023-10-05T16:57:54.783Z,3.97
2023-10-05T17:00:28.561Z,3.70
2023-10-05T17:02:57.288Z,3.80
2023-10-05T17:05:29.962Z,3.78
2023-10-05T17:08:01.951Z,3.90
2023-10-05T17:10:29.309Z,4.05
2023-10-05T17:12:56.451Z,4.20
2023-10-05T17:15:25.651Z,4.30
2023-10-05T17:17:54.567Z,3.50
2023-10-05T17:20:23.208Z,4.18
2023-10-05T17:22:51.515Z,4.45
2023-10-05T17:25:18.998Z,4.50
2023-10-05T17:27:46.129Z,3.70
2023-10-05T17:30:15.096Z,4.05
2023-10-05T17:32:47.712Z,3.92
2023-10-05T17:35:24.619Z,3.80
2023-10-05T17:37:52.702Z,3.90
2023-10-05T17:40:20.521Z,4.22
2023-10-05T17:42:48.042Z,3.65
2023-10-05T17:45:15.265Z,4.22
2023-10-05T17:47:42.916Z,3.92
2023-10-05T17:50:10.309Z,4.70
2023-10-05T17:52:37.319Z,4.65
2023-10-05T17:55:08.113Z,4.70
2023-10-05T17:57:35.309Z,4.43
2023-10-05T18:00:02.562Z,4.32
2023-10-05T18:02:39.846Z,4.53
2023-10-05T18:05:07.813Z,3.90
2023-10-05T18:07:34.785Z,4.35
2023-10-05T18:10:02.057Z,4.45
2023-10-05T18:12:29.003Z,4.63
2023-10-05T18:14:57.442Z,3.67
2023-10-05T18:17:26.258Z,6.65
2023-10-05T18:19:54.721Z,11.77
2023-10-05T18:22:22.870Z,9.77
2023-10-05T18:24:50.674Z,18.75
2023-10-05T18:27:18.079Z,10.10
2023-10-05T18:29:46.305Z,6.50
2023-10-05T18:32:15.429Z,5.68
2023-10-05T18:34:43.186Z,6.00
2023-10-05T18:37:10.252Z,4.95
2023-10-05T18:39:37.486Z,5.13
2023-10-05T18:42:05.162Z,4.85
2023-10-05T18:44:32.293Z,4.57
2023-10-05T18:46:59.400Z,4.93
2023-10-05T18:49:26.480Z,6.03
2023-10-05T18:51:54.494Z,5.63
2023-10-05T18:54:21.895Z,6.03
2023-10-05T18:56:50.769Z,8.93
2023-10-05T18:59:17.932Z,9.13
2023-10-05T19:01:44.937Z,7.75
2023-10-05T19:04:12.023Z,9.38
2023-10-05T19:06:39.022Z,8.68
2023-10-05T19:09:06.265Z,10.50
2023-10-05T19:11:35.246Z,9.52
2023-10-05T19:14:03.042Z,10.60
2023-10-05T19:16:30.531Z,10.75
2023-10-05T19:18:57.665Z,9.73
2023-10-05T19:21:24.602Z,7.00
2023-10-05T19:23:51.629Z,9.30
2023-10-05T19:26:18.900Z,8.27
2023-10-05T19:28:46.214Z,9.77
2023-10-05T19:31:20.563Z,8.23
2023-10-05T19:33:50.380Z,7.97
2023-10-05T19:36:17.328Z,8.30
2023-10-05T19:38:44.316Z,7.28
2023-10-05T19:41:12.616Z,8.30
2023-10-05T19:43:39.586Z,7.38
2023-10-05T19:46:06.597Z,6.97
2023-10-05T19:48:34.489Z,6.85
2023-10-05T19:51:06.950Z,7.18
2023-10-05T19:53:34.255Z,8.00
2023-10-05T19:56:01.231Z,8.02
2023-10-05T19:58:28.338Z,6.55
2023-10-05T20:00:55.502Z,7.18
2023-10-05T20:03:22.856Z,4.72
2023-10-05T20:05:50.976Z,6.65
2023-10-05T20:08:18.063Z,6.78
2023-10-05T20:10:45.138Z,6.18
2023-10-05T20:13:12.322Z,5.63
2023-10-05T20:15:43.869Z,6.55
2023-10-05T20:18:11.330Z,7.38
2023-10-05T20:20:41.435Z,8.25
2023-10-05T20:23:09.013Z,6.60
2023-10-05T20:25:41.264Z,6.97
2023-10-05T20:28:10.047Z,6.43
2023-10-05T20:30:40.601Z,5.57
2023-10-05T20:33:09.531Z,7.38
2023-10-05T20:35:36.959Z,6.95
2023-10-05T20:38:11.184Z,6.13
2023-10-05T20:40:38.494Z,6.55
2023-10-05T20:43:05.559Z,7.25
2023-10-05T20:45:32.650Z,6.95
2023-10-05T20:47:59.708Z,5.38
2023-10-05T20:50:27.259Z,7.95
2023-10-05T20:52:55.646Z,6.70
2023-10-05T20:55:22.864Z,6.88
2023-10-05T20:57:50.047Z,6.40
2023-10-05T21:00:17.587Z,7.70
2023-10-05T21:02:44.586Z,8.02
2023-10-05T21:05:15.315Z,7.93
2023-10-05T21:07:42.502Z,6.50
2023-10-05T21:10:09.471Z,6.45
2023-10-05T21:12:36.810Z,6.43
2023-10-05T21:15:05.001Z,7.15
2023-10-05T21:17:32.351Z,6.90
2023-10-05T21:19:59.921Z,7.35
2023-10-05T21:22:27.530Z,7.72
2023-10-05T21:24:54.490Z,6.85
2023-10-05T21:27:21.533Z,6.82
2023-10-05T21:29:48.567Z,7.50
2023-10-05T21:32:15.580Z,7.15
2023-10-05T21:34:42.590Z,7.35
2023-10-05T21:37:09.880Z,7.82
2023-10-05T21:39:37.107Z,7.15
2023-10-05T21:42:04.126Z,6.93
2023-10-05T21:44:32.719Z,7.78
2023-10-05T21:46:59.988Z,7.45
2023-10-05T21:49:27.181Z,6.72
2023-10-05T21:51:54.276Z,6.22
2023-10-05T21:54:21.227Z,8.15
2023-10-05T21:56:48.347Z,6.88
2023-10-05T21:59:15.353Z,7.60
2023-10-05T22:01:42.470Z,7.00
2023-10-05T22:04:09.693Z,7.53
2023-10-05T22:06:37.069Z,7.55
2023-10-05T22:09:04.988Z,7.00
2023-10-05T22:11:32.458Z,7.35
2023-10-05T22:13:59.503Z,7.55
2023-10-05T22:16:26.689Z,6.90
2023-10-05T22:18:53.762Z,7.00
2023-10-05T22:21:20.800Z,7.60
2023-10-05T22:23:47.766Z,7.95
2023-10-05T22:26:14.760Z,7.60
2023-10-05T22:28:41.915Z,7.43
2023-10-05T22:31:10.927Z,8.00
2023-10-05T22:33:37.882Z,7.43
2023-10-05T22:36:06.357Z,7.90
2023-10-05T22:38:41.611Z,8.02
2023-10-05T22:41:11.730Z,8.25
2023-10-05T22:43:38.856Z,7.55
2023-10-05T22:46:32.150Z,7.55
2023-10-05T22:48:59.207Z,6.57
2023-10-05T22:51:26.121Z,7.07
2023-10-05T22:53:53.305Z,6.57
2023-10-05T22:56:20.439Z,7.65
2023-10-05T22:58:48.647Z,7.97
2023-10-05T23:01:16.287Z,7.65
2023-10-05T23:03:43.895Z,6.50
2023-10-05T23:06:11.566Z,7.13
2023-10-05T23:08:38.635Z,6.65
2023-10-05T23:11:07.140Z,6.15
2023-10-05T23:13:34.544Z,7.07
2023-10-05T23:16:01.670Z,7.22
2023-10-05T23:18:28.768Z,6.97
2023-10-05T23:20:57.491Z,6.97
2023-10-05T23:23:25.743Z,4.85
2023-10-05T23:25:52.840Z,6.28
2023-10-05T23:28:20.008Z,6.25
2023-10-05T23:30:47.501Z,6.32
2023-10-05T23:33:14.919Z,5.32
2023-10-05T23:35:41.926Z,6.80
2023-10-05T23:38:13.890Z,6.57
2023-10-05T23:40:44.668Z,7.22
2023-10-05T23:43:17.353Z,5.30
2023-10-05T23:45:47.913Z,6.07
2023-10-05T23:48:15.700Z,6.78
2023-10-05T23:50:43.010Z,6.60
2023-10-05T23:53:11.397Z,6.20
2023-10-05T23:55:44.890Z,6.40
2023-10-05T23:58:23.696Z,6.97
